createdAt,value
2018-12-13T00:01:45.905Z,100663.00
2018-12-13T00:06:47.105Z,100665.00
2018-12-13T00:11:48.327Z,100661.00
2018-12-13T00:16:49.549Z,100657.00
2018-12-13T00:21:50.766Z,100664.00
2018-12-13T00:26:51.998Z,100654.00
2018-12-13T00:31:53.196Z,100655.00
2018-12-13T00:36:54.439Z,100646.00
2018-12-13T00:41:55.770Z,100655.00
2018-12-13T00:46:57.113Z,100650.00
2018-12-13T00:51:58.362Z,100647.00
2018-12-13T00:56:59.631Z,100636.00
2018-12-13T01:02:00.875Z,100636.00
2018-12-13T01:07:02.344Z,100626.00
2018-12-13T01:12:03.577Z,100608.00
2018-12-13T01:17:04.839Z,100624.00
2018-12-13T01:22:06.185Z,100622.00
2018-12-13T01:27:07.411Z,100611.00
2018-12-13T01:32:08.652Z,100613.00
2018-12-13T01:37:09.872Z,100611.00
2018-12-13T01:42:11.145Z,100606.00
2018-12-13T01:47:12.392Z,100604.00
2018-12-13T01:52:13.661Z,100596.00
2018-12-13T01:57:14.879Z,100602.00
2018-12-13T02:02:16.109Z,100598.00
2018-12-13T02:07:17.323Z,100586.00
2018-12-13T02:12:18.567Z,100582.00
2018-12-13T02:17:19.892Z,100574.00
2018-12-13T02:22:21.257Z,100573.00
2018-12-13T02:27:22.461Z,100569.00
2018-12-13T02:32:23.669Z,100579.00
2018-12-13T02:37:25.038Z,100575.00
2018-12-13T02:42:26.259Z,100569.00
2018-12-13T02:47:27.646Z,100581.00
2018-12-13T02:52:28.889Z,100575.00
2018-12-13T02:57:30.103Z,100575.00
2018-12-13T03:02:31.861Z,100578.00
2018-12-13T03:07:33.432Z,100578.00
2018-12-13T03:12:34.686Z,100561.00
2018-12-13T03:17:35.913Z,100555.00
2018-12-13T03:22:37.125Z,100545.00
2018-12-13T03:27:38.378Z,100549.00
2018-12-13T03:32:40.527Z,100540.00
2018-12-13T03:37:41.981Z,100532.00
2018-12-13T03:42:43.281Z,100521.00
2018-12-13T03:47:44.517Z,100519.00
2018-12-13T03:52:45.733Z,100510.00
2018-12-13T03:57:46.948Z,100503.00
2018-12-13T04:02:48.176Z,100486.00
2018-12-13T04:07:49.391Z,100500.00
2018-12-13T04:12:50.705Z,100497.00
2018-12-13T04:17:51.945Z,100485.00
2018-12-13T04:22:53.254Z,100488.00
2018-12-13T04:27:54.480Z,100480.00
2018-12-13T04:32:55.794Z,100492.00
2018-12-13T04:37:57.375Z,100489.00
2018-12-13T04:42:58.722Z,100491.00
2018-12-13T04:47:59.941Z,100494.00
2018-12-13T04:53:01.163Z,100490.00
2018-12-13T04:58:02.518Z,100493.00
2018-12-13T05:03:03.781Z,100480.00
2018-12-13T05:08:05.133Z,100482.00
2018-12-13T05:13:06.394Z,100483.00
2018-12-13T05:18:07.624Z,100473.00
2018-12-13T05:23:09.005Z,100472.00
2018-12-13T05:28:10.205Z,100466.00
2018-12-13T05:33:11.443Z,100456.00
2018-12-13T05:38:12.749Z,100459.00
2018-12-13T05:43:14.017Z,100455.00
2018-12-13T05:48:15.339Z,100457.00
2018-12-13T05:53:16.598Z,100461.00
2018-12-13T05:58:17.844Z,100459.00
2018-12-13T06:03:19.078Z,100449.00
2018-12-13T06:08:20.406Z,100450.00
2018-12-13T06:13:21.972Z,100448.00
2018-12-13T06:18:23.193Z,100443.00
2018-12-13T06:23:24.394Z,100439.00
2018-12-13T06:28:25.629Z,100435.00
2018-12-13T06:33:28.282Z,100427.00
2018-12-13T06:38:29.765Z,100439.00
2018-12-13T06:43:31.016Z,100443.00
2018-12-13T06:48:32.244Z,100444.00
2018-12-13T06:53:33.526Z,100447.00
2018-12-13T06:58:34.799Z,100457.00
2018-12-13T07:03:36.141Z,100448.00
2018-12-13T07:08:37.398Z,100465.00
2018-12-13T07:13:38.611Z,100466.00
2018-12-13T07:18:39.837Z,100467.00
2018-12-13T07:23:41.057Z,100467.00
2018-12-13T07:28:42.298Z,100460.00
2018-12-13T07:33:43.657Z,100464.00
2018-12-13T07:38:44.969Z,100465.00
2018-12-13T07:43:46.210Z,100472.00
2018-12-13T07:48:47.473Z,100472.00
2018-12-13T07:53:48.706Z,100469.00
2018-12-13T07:58:50.144Z,100474.00
2018-12-13T08:03:51.453Z,100472.00
2018-12-13T08:08:52.658Z,100468.00
2018-12-13T08:13:54.033Z,100473.00
2018-12-13T08:18:55.266Z,100467.00
2018-12-13T08:23:56.478Z,100468.00
2018-12-13T08:28:57.687Z,100474.00
2018-12-13T08:33:58.994Z,100462.00
2018-12-13T08:39:00.234Z,100466.00
2018-12-13T08:44:01.623Z,100460.00
2018-12-13T08:49:02.997Z,100462.00
2018-12-13T08:54:04.226Z,100460.00
2018-12-13T08:59:05.439Z,100445.00
2018-12-13T09:04:06.681Z,100459.00
2018-12-13T09:09:08.010Z,100464.00
2018-12-13T09:14:09.275Z,100452.00
2018-12-13T09:19:10.477Z,100454.00
2018-12-13T09:24:11.705Z,100454.00
2018-12-13T09:29:12.914Z,100457.00
2018-12-13T09:34:14.166Z,100448.00
2018-12-13T09:39:15.372Z,100437.00
2018-12-13T09:44:16.591Z,100434.00
2018-12-13T09:49:17.832Z,100429.00
2018-12-13T09:54:19.241Z,100417.00
2018-12-13T09:59:20.546Z,100413.00
2018-12-13T10:04:21.996Z,100417.00
2018-12-13T10:09:23.374Z,100403.00
2018-12-13T10:14:24.628Z,100405.00
2018-12-13T10:19:25.919Z,100400.00
2018-12-13T10:24:27.265Z,100386.00
2018-12-13T10:29:28.565Z,100380.00
2018-12-13T10:34:29.839Z,100382.00
2018-12-13T10:39:31.086Z,100363.00
2018-12-13T10:44:34.819Z,100364.00
2018-12-13T10:49:36.267Z,100356.00
2018-12-13T10:54:37.641Z,100365.00
2018-12-13T10:59:38.910Z,100360.00
2018-12-13T11:04:40.259Z,100372.00
2018-12-13T11:09:41.534Z,100368.00
2018-12-13T11:14:42.883Z,100367.00
2018-12-13T11:19:44.152Z,100362.00
2018-12-13T11:24:45.416Z,100354.00
2018-12-13T11:35:32.294Z,100342.00
2018-12-13T11:40:33.771Z,100346.00
2018-12-13T11:45:35.045Z,100343.00
2018-12-13T11:50:36.315Z,100330.00
2018-12-13T11:55:37.797Z,100332.00
2018-12-13T12:00:39.067Z,100319.00
2018-12-13T12:05:40.423Z,100320.00
2018-12-13T12:10:41.702Z,100309.00
2018-12-13T12:15:42.998Z,100309.00
2018-12-13T12:20:44.347Z,100299.00
2018-12-13T12:25:45.690Z,100296.00
2018-12-13T12:30:47.119Z,100298.00
2018-12-13T12:35:48.362Z,100296.00
2018-12-13T12:40:49.756Z,100290.00
2018-12-13T12:45:51.055Z,100285.00
2018-12-13T12:50:52.382Z,100286.00
2018-12-13T12:55:53.677Z,100296.00
2018-12-13T13:00:55.006Z,100298.00
2018-12-13T13:05:56.300Z,100289.00
2018-12-13T13:10:57.724Z,100275.00
2018-12-13T13:15:59.042Z,100285.00
2018-12-13T13:21:00.431Z,100280.00
2018-12-13T13:26:01.731Z,100281.00
2018-12-13T13:31:03.220Z,100281.00
2018-12-13T13:36:04.903Z,100279.00
2018-12-13T13:41:06.271Z,100266.00
2018-12-13T13:46:07.622Z,100257.00
2018-12-13T13:51:09.081Z,100269.00
2018-12-13T13:56:10.336Z,100279.00
2018-12-13T14:01:11.701Z,100285.00
2018-12-13T14:06:12.944Z,100279.00
2018-12-13T14:11:14.334Z,100280.00
2018-12-13T14:16:15.642Z,100287.00
2018-12-13T14:21:17.030Z,100284.00
2018-12-13T14:26:18.266Z,100289.00
2018-12-13T14:31:19.589Z,100275.00
2018-12-13T14:36:20.823Z,100288.00
2018-12-13T14:41:22.105Z,100281.00
2018-12-13T14:46:23.471Z,100296.00
2018-12-13T14:51:24.775Z,100289.00
2018-12-13T14:56:26.253Z,100301.00
2018-12-13T15:01:27.529Z,100292.00
2018-12-13T15:06:28.812Z,100297.00
2018-12-13T15:11:30.103Z,100301.00
2018-12-13T15:16:31.301Z,100310.00
2018-12-13T15:21:32.660Z,100309.00
2018-12-13T15:26:33.905Z,100308.00
2018-12-13T15:31:35.161Z,100310.00
2018-12-13T15:36:36.437Z,100308.00
2018-12-13T15:41:37.937Z,100303.00
2018-12-13T15:46:39.399Z,100314.00
2018-12-13T15:51:40.690Z,100305.00
2018-12-13T15:56:41.937Z,100316.00
2018-12-13T16:01:43.314Z,100314.00
2018-12-13T16:06:44.649Z,100298.00
2018-12-13T16:11:45.886Z,100306.00
2018-12-13T16:16:47.236Z,100298.00
2018-12-13T16:21:48.485Z,100299.00
2018-12-13T16:26:49.735Z,100300.00
2018-12-13T16:31:50.960Z,100309.00
2018-12-13T16:36:52.208Z,100317.00
2018-12-13T16:41:53.488Z,100317.00
2018-12-13T16:46:54.837Z,100303.00
2018-12-13T16:51:56.112Z,100308.00
2018-12-13T16:56:57.504Z,100309.00
2018-12-13T17:01:58.803Z,100307.00
2018-12-13T17:07:00.043Z,100308.00
2018-12-13T17:12:01.345Z,100312.00
2018-12-13T17:17:02.798Z,100318.00
2018-12-13T17:22:04.087Z,100307.00
2018-12-13T17:27:05.358Z,100315.00
2018-12-13T17:32:06.757Z,100316.00
2018-12-13T17:37:08.283Z,100317.00
2018-12-13T17:42:09.785Z,100311.00
2018-12-13T17:47:11.086Z,100316.00
2018-12-13T17:52:12.367Z,100323.00
2018-12-13T17:57:13.650Z,100314.00
2018-12-13T18:02:15.041Z,100319.00
2018-12-13T18:07:16.636Z,100313.00
2018-12-13T18:12:18.001Z,100312.00
2018-12-13T18:17:19.310Z,100317.00
2018-12-13T18:22:20.590Z,100315.00
2018-12-13T18:27:22.053Z,100316.00
2018-12-13T18:32:23.346Z,100315.00
2018-12-13T18:37:24.624Z,100323.00
2018-12-13T18:42:25.890Z,100323.00
2018-12-13T18:47:27.165Z,100315.00
2018-12-13T18:52:28.446Z,100333.00
2018-12-13T18:57:29.712Z,100323.00
2018-12-13T19:02:31.005Z,100325.00
2018-12-13T19:07:32.332Z,100320.00
2018-12-13T19:12:33.579Z,100334.00
2018-12-13T19:17:35.017Z,100335.00
2018-12-13T19:22:36.336Z,100334.00
2018-12-13T19:27:37.639Z,100342.00
2018-12-13T19:32:42.460Z,100336.00
2018-12-13T19:37:43.807Z,100333.00
2018-12-13T19:42:45.161Z,100335.00
2018-12-13T19:47:46.532Z,100341.00
2018-12-13T19:52:47.794Z,100344.00
2018-12-13T19:57:49.390Z,100344.00
2018-12-13T20:02:50.717Z,100346.00
2018-12-13T20:07:52.081Z,100340.00
2018-12-13T20:12:53.472Z,100344.00
2018-12-13T20:17:54.761Z,100351.00
2018-12-13T20:22:56.098Z,100365.00
2018-12-13T20:27:57.373Z,100363.00
2018-12-13T20:32:58.614Z,100350.00
2018-12-13T20:38:00.547Z,100356.00
2018-12-13T20:43:02.539Z,100371.00
2018-12-13T20:48:03.847Z,100384.00
2018-12-13T20:53:05.249Z,100384.00
2018-12-13T20:58:06.513Z,100384.00
2018-12-13T21:03:07.793Z,100401.00
2018-12-13T21:08:09.202Z,100393.00
2018-12-13T21:13:10.473Z,100408.00
2018-12-13T21:18:11.741Z,100396.00
2018-12-13T21:23:13.053Z,100391.00
2018-12-13T21:28:14.297Z,100404.00
2018-12-13T21:33:15.582Z,100389.00
2018-12-13T21:38:16.863Z,100398.00
2018-12-13T21:43:18.141Z,100383.00
2018-12-13T21:48:19.377Z,100389.00
2018-12-13T21:53:20.870Z,100374.00
2018-12-13T21:58:22.193Z,100378.00
2018-12-13T22:03:23.444Z,100369.00
2018-12-13T22:08:24.664Z,100367.00
2018-12-13T22:13:25.949Z,100366.00
2018-12-13T22:18:27.212Z,100376.00
2018-12-13T22:23:28.478Z,100375.00
2018-12-13T22:28:29.712Z,100368.00
2018-12-13T22:33:31.095Z,100381.00
2018-12-13T22:38:32.419Z,100382.00
2018-12-13T22:43:33.703Z,100386.00
2018-12-13T22:48:34.991Z,100385.00
2018-12-13T22:53:36.262Z,100406.00
2018-12-13T22:58:37.490Z,100395.00
2018-12-13T23:03:38.737Z,100394.00
2018-12-13T23:08:40.016Z,100392.00
2018-12-13T23:13:41.364Z,100390.00
2018-12-13T23:18:42.893Z,100392.00
2018-12-13T23:23:44.153Z,100392.00
2018-12-13T23:28:45.414Z,100380.00
2018-12-13T23:33:46.696Z,100395.00
2018-12-13T23:38:48.053Z,100385.00
2018-12-13T23:43:49.248Z,100392.00
2018-12-13T23:48:50.527Z,100390.00
2018-12-13T23:53:51.762Z,100402.00
2018-12-13T23:58:53.347Z,100397.00
